Terminal Aerodrome Forecast
Issued by NWS

Home | Current Version | Previous Version | Text Only | Print | Product List | Glossary On
Versions: 1 2 3 4 5 6 7 8 9 10 11 12 13 14 15 16 17 18 19 20 21
000
FTUS44 KLZK 230524
TAFADF
TAF
KADF 230524Z 2306/2406 00000KT 6SM BR SKC
     FM230800 00000KT 4SM BR SCT003
      TEMPO 2309/2313 1SM BR SCT003
     FM231400 10007KT P6SM SCT050
     FM240000 10004KT P6SM SKC=

USA.gov is the U.S. government's official web portal to all federal, state and local government web resources and services.